Terminal Aerodrome Forecast
Issued by NWS Grand Forks, ND

Home | Current Version | Previous Version | Graphics & Text | Print | Product List | Glossary On
Versions: 1 2 3 4 5 6 7 8 9 10 11 12 13 14 15 16 17 18 19
785
FTUS43 KFGF 211122
TAFGFK
TAF
KGFK 211122Z 2112/2212 16012KT P6SM BKN250 WS020/18040KT
     FM211500 16016G25KT P6SM SCT200
     FM220000 15014KT P6SM SCT110
     FM220300 16009KT P6SM SCT200
     FM220400 20008KT P6SM SCT150
     FM220500 27007KT P6SM SCT200
     FM220600 31007KT P6SM SCT200
     FM220800 34008KT P6SM SCT150=

USA.gov is the U.S. government's official web portal to all federal, state and local government web resources and services.